• Join FlightAware (Why Join?)
  • Login
  • US Flag 
12:27AM EDT


 

Airport Tracker/Info


-or-


 

Live Flight TrackerFlight Track Log ✈ EJA982 ✈ 21-Apr-2013 ✈ KTIW - KSJC

Flight Track Log - Related Links

Times and Time Zones

All times are in EDT time to prevent confusion due to time zone crossing. See the EJA982 flight status page for this flight to view local times or setup timezone preferences in your user account.

Time Position Orientation Groundspeed Altitude Reporting Facility
EDT Latitude Longitude Course Direction KTS MPH feet Rate Location/Type
06:52PM 47.2872 -122.5778 284° West 177 204 1,300  Level Seattle Center
06:53PM 47.3028 -122.6672 284° West 232 267 5,500 3,720 Climbing Seattle Center
06:54PM 47.3017 -122.7703 269° West 253 291 9,500 3,780 Climbing Seattle Center
06:55PM 47.2825 -122.8950 257° West 323 372 13,300 4,080 Climbing Seattle Center
06:56PM 47.2508 -123.0178 249° West 327 376 17,800 3,480 Climbing Seattle Center
06:57PM 47.2036 -123.1433 241° Southwest 357 411 20,400 2,700 Climbing Seattle Center
06:58PM 47.0689 -123.1944 194° South 442 509 23,400 2,520 Climbing Seattle Center
06:59PM 46.9397 -123.2003 182° South 467 537 25,600 1,740 Climbing Seattle Center
07:00PM 46.8050 -123.2078 182° South 487 560 27,000 1,380 Climbing Seattle Center
07:01PM 46.6606 -123.2150 182° South 518 596 28,500 1,200 Climbing Seattle Center
07:02PM 46.5108 -123.2261 183° South 543 625 29,500 1,200 Climbing Seattle Center
07:03PM 46.3419 -123.2322 181° South 562 647 31,000 1,860 Climbing Seattle Center
07:04PM 46.1864 -123.2342 180° South 561 646 33,400 2,760 Climbing Seattle Center
07:05PM 46.0383 -123.2408 182° South 536 617 36,700 1,740 Climbing Seattle Center
07:06PM 45.8906 -123.2489 182° South 535 616 37,000 120 Climbing Seattle Center
07:07PM 45.7283 -123.2533 181° South 577 664 37,000  Level Seattle Center
07:08PM 45.5697 -123.2606 182° South 575 662 37,000  Level Seattle Center
07:09PM 45.4139 -123.2656 181° South 562 647 37,000  Level Seattle Center
07:10PM 45.2617 -123.2714 182° South 550 633 37,000  Level Seattle Center
07:11PM 45.1053 -123.2778 182° South 555 639 37,000  Level Seattle Center
07:12PM 44.9464 -123.2825 181° South 559 643 37,000  Level Seattle Center
07:13PM 44.7878 -123.2900 182° South 558 642 37,000  Level Seattle Center
07:14PM 44.6308 -123.2947 181° South 559 643 37,000  Level Seattle Center
07:15PM 44.4756 -123.3017 182° South 558 642 37,000  Level Seattle Center
07:16PM 44.3178 -123.3058 181° South 566 651 37,000  Level Seattle Center
07:17PM 44.1636 -123.3125 182° South 560 644 37,000  Level Seattle Center
07:18PM 43.9892 -123.3206 182° South 554 638 37,000  Level Seattle Center
07:19PM 43.8353 -123.3269 182° South 552 635 37,000  Level Seattle Center
07:20PM 43.6794 -123.3319 181° South 558 642 37,000  Level Seattle Center
07:21PM 43.5261 -123.3381 182° South 553 636 37,000  Level Seattle Center
07:22PM 43.3711 -123.3414 181° South 553 636 37,000  Level Seattle Center
07:23PM 43.2167 -123.3489 182° South 554 638 37,000  Level Seattle Center
07:24PM 43.0617 -123.3475 180° South 556 640 37,000  Level Seattle Center
07:25PM 42.9075 -123.3442 179° South 553 636 37,000  Level Seattle Center
07:26PM 42.7217 -123.3411 179° South 555 639 37,000  Level Seattle Center
07:27PM 42.5942 -123.3389 179° South 554 638 37,000  Level Seattle Center
07:28PM 42.4406 -123.3342 179° South 553 636 37,000  Level Seattle Center
07:29PM 42.2544 -123.3333 180° South 558 642 37,000  Level Seattle Center
07:30PM 42.0992 -123.3283 179° South 562 647 37,000  Level Seattle Center
07:31PM 41.9453 -123.3258 179° South 557 641 37,000  Level Seattle Center
07:32PM 41.7911 -123.3231 179° South 556 640 37,000  Level Seattle Center
07:33PM 41.6400 -123.3189 179° South 546 628 37,000  Level Seattle Center
07:34PM 41.5917 -123.3181 179° South 540 621 37,000  Level Oakland Center
07:35PM 41.4419 -123.2967 174° South 540 621 37,000  Level Oakland Center
07:35PM 41.3508 -123.2847 174° South 540 621 37,000  Level Seattle Center
07:36PM 41.2006 -123.2642 174° South 542 624 37,000  Level Seattle Center
07:37PM 41.0489 -123.2442 174° South 544 626 37,000  Level Seattle Center
07:38PM 40.8678 -123.2214 175° South 543 625 37,000  Level Seattle Center
07:39PM 40.8389 -123.2183 175° South 542 624 37,000  Level Oakland Center
07:40PM 40.6689 -123.1953 174° South 542 624 37,000  Level Oakland Center
07:41PM 40.5194 -123.1756 174° South 543 625 37,000  Level Oakland Center
07:42PM 40.3686 -123.1564 174° South 546 628 37,000  Level Oakland Center
07:43PM 40.2183 -123.1361 174° South 547 629 37,000  Level Oakland Center
07:44PM 40.0375 -123.1139 175° South 547 629 37,000  Level Oakland Center
07:45PM 39.8892 -123.0961 175° South 543 625 37,000  Level Oakland Center
07:46PM 39.7389 -123.0761 174° South 546 628 37,000  Level Oakland Center
07:47PM 39.5878 -123.0514 173° South 549 632 37,000  Level Oakland Center
07:48PM 39.4506 -123.0164 169° South 545 627 37,000  Level Oakland Center
07:49PM 39.2717 -122.9739 170° South 546 628 37,000  Level Oakland Center
07:50PM 39.1211 -122.9414 170° South 549 632 37,000  Level Oakland Center
07:51PM 38.9708 -122.9081 170° South 548 631 37,000 -540 Level Oakland Center
07:52PM 38.8225 -122.8756 170° South 541 623 36,000 -1,920 Descending Oakland Center
07:53PM 38.6803 -122.8453 171° South 524 603 33,100 -2,880 Descending Oakland Center
07:54PM 38.5347 -122.8136 170° South 528 608 30,200 -2,880 Descending Oakland Center
07:55PM 38.3900 -122.7814 170° South 530 610 27,200 -2,880 Descending Oakland Center
07:56PM 38.2458 -122.7489 170° South 527 606 24,300 -3,000 Descending Oakland Center
07:57PM 38.0875 -122.7158 171° South 480 552 21,100 -3,060 Descending Oakland Center
07:58PM 37.9589 -122.6886 171° South 475 547 18,100 -3,000 Descending Oakland Center
07:59PM 37.8542 -122.6297 156° South 443 510 15,000 -2,340 Descending Oakland Center
08:00PM 37.7669 -122.5339 139° Southeast 427 491 13,400 -1,500 Descending Oakland Center
08:01PM 37.6792 -122.4394 140° Southeast 422 486 12,000 -720 Descending Oakland Center
08:02PM 37.5778 -122.3703 152° Southeast 336 387 12,000  Level Oakland Center
08:03PM 37.5011 -122.3233 154° Southeast 311 358 12,000  Level Oakland Center
08:04PM 37.4222 -122.2753 154° Southeast 316 364 12,000 -300 Level Oakland Center
08:05PM 37.3550 -122.2078 141° Southeast 326 375 11,400 -900 Descending Oakland Center
08:06PM 37.3075 -122.1225 125° Southeast 305 351 10,200 -1,500 Descending Oakland Center
08:07PM 37.2600 -122.0403 126° Southeast 294 338 8,400 -1,800 Descending Oakland Center
08:09PM 37.2133 -121.9597 126° Southeast 288 331 6,600 -1,620 Descending Oakland Center
08:10PM 37.2097 -121.8739 93° East 264 304 5,200 -1,500 Descending Oakland Center
08:11PM 37.2572 -121.8436 27° Northeast 223 257 3,600 -1,680 Descending Oakland Center
08:12PM 37.3053 -121.8633 342° North 176 203 1,800 -1,440 Descending Oakland Center
08:13PM 37.3342 -121.8972 317° Northwest 153 176 700 -1,140 Descending Oakland Center